Pocatello Regional Airport
KPIH : rendu visible

Aérodrome :











RETROUVEZ-NOUS SUR...

 
LOGIN :

S'inscrire | Disclaimer

   EN    FR    IT 

 









Légende :    VFR   VFR Marginal   IFR   IFR Intensif   IFR Très Intensif
Visi : 
Plafond : 
>= 8 km
>= 3000ft
5 à 8 km
1000 à 3000 ft
1500m à 5 km
500 à 1000 ft
800 à 1500m
200 à 500 ft
< 800m
< 200 ft
Symboles :   Orages  Brouillard  Fortes neiges  Fortes précipitations  Vent > 20 kt






- Altitude de l'aérodrome : 4452 ft
- Code IATA : PIH


KPIH - Pocatello Regional

DERNIER METAR :
  • 221953Z 02009KT 10SM CLR 03/M12 A3015 RMK AO2 SLP241 T00331117

METARs EXPIRÉS :
  • 221853Z 02006KT 10SM CLR 02/M12 A3018 RMK AO2 SLP255 T00171122
  • 221753Z 04006KT 10SM CLR M01/M11 A3020 RMK AO2 SLP263 T10111111 11011 21133 58000

TAF KPIH
Valide du 22 à 18h jusqu'au 23 à 18h UTC


221720Z 2218/2318 02005KT P6SM FEW180



MET'MAP, la Météo Aéronautique d'un coup d'oeil ! - Copyright ORBIFLY Décembre 2007 - Disclaimer

ORBIFLY MET'MAP TEAM :

Programmation & Développement : Alexandra Zaïnal
Sur une idée originale de : Baudouin d'Aumeries
Assistance à la programmation : Marc-Olivier Méhu
Soutien technique & logistique : Manuel Goepfert

Contact : metmap@orbifly.com




SOURCES & CREDITS :

   NOAA       Earth
Advisory